createdAt,value
2023-01-31T00:01:40.897Z,75.18
2023-01-31T00:04:09.272Z,75.09
2023-01-31T00:06:39.551Z,75.17
2023-01-31T00:09:09.496Z,75.25
2023-01-31T00:11:37.538Z,75.46
2023-01-31T00:14:06.932Z,75.37
2023-01-31T00:16:34.150Z,75.80
2023-01-31T00:19:00.873Z,75.85
2023-01-31T00:21:29.439Z,75.96
2023-01-31T00:23:57.468Z,76.52
2023-01-31T00:26:27.307Z,77.50
2023-01-31T00:28:55.765Z,77.85
2023-01-31T00:31:24.345Z,78.25
2023-01-31T00:33:52.897Z,78.59
2023-01-31T00:36:22.646Z,79.02
2023-01-31T00:38:50.095Z,79.43
2023-01-31T00:41:18.328Z,78.76
2023-01-31T00:43:46.548Z,79.35
2023-01-31T00:46:13.467Z,79.25
2023-01-31T00:48:40.375Z,80.11
2023-01-31T00:51:07.530Z,80.07
2023-01-31T00:53:35.053Z,80.01
2023-01-31T00:56:05.034Z,80.12
2023-01-31T00:58:31.859Z,81.18
2023-01-31T01:01:07.746Z,81.16
2023-01-31T01:03:35.409Z,81.01
2023-01-31T01:06:02.259Z,81.12
2023-01-31T01:08:29.965Z,82.08
2023-01-31T01:10:57.234Z,81.99
2023-01-31T01:13:23.965Z,83.01
2023-01-31T01:15:50.625Z,82.57
2023-01-31T01:18:19.040Z,83.99
2023-01-31T01:20:45.748Z,84.75
2023-01-31T01:23:12.443Z,86.13
2023-01-31T01:25:43.793Z,87.02
2023-01-31T01:28:10.607Z,86.80
2023-01-31T01:30:38.199Z,86.80
2023-01-31T01:33:05.079Z,88.08
2023-01-31T01:35:34.048Z,89.88
2023-01-31T01:38:00.919Z,90.31
2023-01-31T01:40:35.515Z,90.10
2023-01-31T01:43:02.195Z,89.11
2023-01-31T01:45:29.418Z,89.18
2023-01-31T01:48:00.067Z,89.89
2023-01-31T01:50:31.126Z,89.40
2023-01-31T01:53:03.506Z,89.89
2023-01-31T01:55:36.207Z,90.39
2023-01-31T01:58:07.156Z,90.57
2023-01-31T02:00:36.147Z,90.42
2023-01-31T02:03:06.423Z,90.69
2023-01-31T02:05:37.009Z,91.66
2023-01-31T02:08:05.302Z,91.12
2023-01-31T02:10:36.166Z,92.46
2023-01-31T02:13:04.118Z,93.08
2023-01-31T02:15:31.674Z,91.83
2023-01-31T02:17:58.435Z,92.76
2023-01-31T02:20:49.275Z,92.49
2023-01-31T02:23:55.028Z,92.92
2023-01-31T02:26:49.603Z,92.72
2023-01-31T02:29:46.421Z,91.91
2023-01-31T02:32:42.184Z,92.18
2023-01-31T02:35:16.608Z,92.32
2023-01-31T02:37:56.164Z,92.91
2023-01-31T02:40:29.684Z,93.95
2023-01-31T02:43:04.944Z,94.01
2023-01-31T02:45:41.117Z,93.96
2023-01-31T02:48:19.071Z,93.12
2023-01-31T02:50:55.252Z,92.61
2023-01-31T02:53:28.342Z,93.78
2023-01-31T02:56:01.507Z,93.69
2023-01-31T02:58:33.619Z,94.12
2023-01-31T03:01:03.649Z,95.71
2023-01-31T03:03:35.213Z,95.27
2023-01-31T03:06:27.812Z,97.39
2023-01-31T03:09:01.964Z,95.90
2023-01-31T03:11:36.449Z,94.35
2023-01-31T03:14:13.572Z,93.59
2023-01-31T03:16:50.439Z,92.48
2023-01-31T03:19:23.379Z,92.67
2023-01-31T03:21:56.672Z,92.42
2023-01-31T03:24:26.800Z,92.50
2023-01-31T03:26:55.953Z,93.12
2023-01-31T03:29:26.315Z,92.48
2023-01-31T03:31:57.377Z,91.42
2023-01-31T03:34:26.651Z,91.29
2023-01-31T03:36:57.537Z,90.26
2023-01-31T03:39:36.191Z,90.27
2023-01-31T03:42:06.526Z,89.33
2023-01-31T03:44:40.883Z,89.36
2023-01-31T03:47:15.556Z,89.14
2023-01-31T03:49:46.617Z,89.26
2023-01-31T03:52:18.922Z,88.95
2023-01-31T03:54:51.542Z,89.02
2023-01-31T03:57:23.221Z,88.42
2023-01-31T03:59:55.060Z,88.26
2023-01-31T04:02:25.072Z,88.50
2023-01-31T04:04:58.691Z,88.54
2023-01-31T04:07:25.558Z,88.25
2023-01-31T04:09:52.386Z,88.24
2023-01-31T04:12:19.233Z,88.08
2023-01-31T04:14:45.956Z,87.98
2023-01-31T04:17:13.338Z,88.95
2023-01-31T04:19:40.257Z,89.42
2023-01-31T04:22:08.483Z,90.82
2023-01-31T04:24:35.487Z,90.54
2023-01-31T04:27:02.543Z,90.74
2023-01-31T04:29:29.359Z,91.29
2023-01-31T04:31:56.248Z,90.64
2023-01-31T04:34:23.049Z,91.18
2023-01-31T04:36:49.776Z,92.15
2023-01-31T04:39:18.087Z,92.42
2023-01-31T04:41:44.855Z,92.84
2023-01-31T04:44:11.593Z,93.65
2023-01-31T04:46:38.624Z,94.00
2023-01-31T04:49:05.800Z,94.94
2023-01-31T04:51:32.882Z,95.73
2023-01-31T04:54:00.188Z,96.12
2023-01-31T04:56:28.479Z,96.12
2023-01-31T04:58:55.411Z,97.07
2023-01-31T05:01:22.272Z,97.67
2023-01-31T05:03:49.479Z,98.82
2023-01-31T05:06:16.224Z,98.97
2023-01-31T05:08:42.986Z,99.49
2023-01-31T05:11:09.997Z,99.66
2023-01-31T05:13:38.423Z,99.39
2023-01-31T05:16:07.735Z,99.01
2023-01-31T05:18:35.189Z,100.00
2023-01-31T05:21:02.727Z,99.59
2023-01-31T05:23:30.368Z,98.58
2023-01-31T05:25:57.810Z,97.96
2023-01-31T05:28:24.888Z,98.60
2023-01-31T05:30:53.244Z,98.51
2023-01-31T05:33:20.961Z,98.78
2023-01-31T05:35:48.202Z,96.75
2023-01-31T05:38:15.453Z,95.64
2023-01-31T05:40:42.551Z,96.84
2023-01-31T05:43:09.419Z,96.85
2023-01-31T05:45:36.281Z,96.91
2023-01-31T05:48:05.284Z,97.62
2023-01-31T05:50:32.268Z,99.51
2023-01-31T05:53:00.919Z,98.43
2023-01-31T05:55:27.981Z,97.43
2023-01-31T05:57:55.423Z,96.92
2023-01-31T06:00:23.058Z,96.63
2023-01-31T06:02:50.793Z,97.50
2023-01-31T06:05:19.560Z,97.29
2023-01-31T06:07:46.622Z,96.62
2023-01-31T06:10:13.941Z,97.48
2023-01-31T06:12:41.087Z,98.57
2023-01-31T06:15:08.583Z,97.43
2023-01-31T06:17:35.797Z,98.69
2023-01-31T06:20:03.747Z,98.32
2023-01-31T06:22:31.849Z,97.82
2023-01-31T06:24:58.639Z,96.51
2023-01-31T06:27:25.601Z,96.18
2023-01-31T06:29:52.252Z,95.72
2023-01-31T06:32:19.026Z,95.85
2023-01-31T06:34:46.016Z,96.51
2023-01-31T06:37:12.936Z,96.54
2023-01-31T06:39:41.478Z,96.09
2023-01-31T06:42:08.309Z,96.18
2023-01-31T06:44:35.457Z,95.91
2023-01-31T06:47:02.513Z,96.73
2023-01-31T06:49:29.446Z,96.78
2023-01-31T06:51:56.737Z,97.74
2023-01-31T06:54:23.665Z,97.36
2023-01-31T06:56:51.789Z,99.05
2023-01-31T06:59:18.661Z,99.79
2023-01-31T07:01:45.650Z,99.64
2023-01-31T07:04:12.447Z,99.82
2023-01-31T07:06:39.459Z,99.96
2023-01-31T07:09:06.467Z,98.76
2023-01-31T07:11:33.195Z,99.81
2023-01-31T07:14:01.503Z,99.17
2023-01-31T07:16:28.514Z,99.54
2023-01-31T07:18:56.441Z,100.00
2023-01-31T07:21:24.325Z,100.00
2023-01-31T07:23:51.339Z,99.83
2023-01-31T07:26:18.325Z,99.37
2023-01-31T07:28:45.200Z,99.68
2023-01-31T07:31:14.822Z,100.00
2023-01-31T07:33:41.911Z,100.00
2023-01-31T07:36:13.045Z,100.00
2023-01-31T07:38:40.346Z,100.00
2023-01-31T07:41:07.868Z,100.00
2023-01-31T07:43:34.890Z,100.00
2023-01-31T07:46:02.318Z,100.00
2023-01-31T07:48:30.406Z,100.00
2023-01-31T07:51:00.228Z,100.00
2023-01-31T07:53:28.199Z,100.00
2023-01-31T07:55:55.203Z,100.00
2023-01-31T07:58:21.962Z,100.00
2023-01-31T08:00:48.664Z,100.00
2023-01-31T08:03:24.985Z,100.00
2023-01-31T08:05:53.105Z,100.00
2023-01-31T08:08:19.864Z,100.00
2023-01-31T08:10:47.223Z,100.00
2023-01-31T08:13:14.052Z,100.00
2023-01-31T08:15:40.690Z,100.00
2023-01-31T08:18:07.394Z,100.00
2023-01-31T08:20:34.198Z,100.00
2023-01-31T08:23:02.376Z,100.00
2023-01-31T08:25:29.478Z,100.00
2023-01-31T08:27:57.590Z,100.00
2023-01-31T08:30:24.536Z,100.00
2023-01-31T08:32:51.246Z,100.00
2023-01-31T08:35:18.304Z,100.00
2023-01-31T08:37:45.208Z,100.00
2023-01-31T08:40:14.266Z,100.00
2023-01-31T08:42:41.122Z,100.00
2023-01-31T08:45:08.703Z,100.00
2023-01-31T08:47:35.449Z,99.46
2023-01-31T08:50:02.353Z,97.61
2023-01-31T08:52:29.021Z,96.39
2023-01-31T08:54:55.857Z,95.65
2023-01-31T08:57:24.156Z,95.52
2023-01-31T08:59:50.977Z,95.34
2023-01-31T09:02:17.859Z,93.15
2023-01-31T09:04:45.770Z,92.78
2023-01-31T09:07:12.527Z,91.45
2023-01-31T09:09:39.582Z,90.19
2023-01-31T09:12:06.899Z,88.67
2023-01-31T09:14:35.051Z,86.76
2023-01-31T09:17:02.046Z,86.17
2023-01-31T09:19:29.941Z,84.83
2023-01-31T09:21:56.865Z,84.23
2023-01-31T09:24:23.746Z,82.80
2023-01-31T09:26:50.533Z,81.19
2023-01-31T09:29:17.320Z,80.70
2023-01-31T09:31:45.588Z,80.54
2023-01-31T09:34:12.476Z,79.72
2023-01-31T09:36:39.273Z,79.15
2023-01-31T09:39:06.112Z,78.46
2023-01-31T09:41:37.339Z,78.23
2023-01-31T09:44:10.965Z,77.03
2023-01-31T09:46:42.879Z,76.47
2023-01-31T09:49:21.099Z,75.47
2023-01-31T09:51:53.296Z,74.01
2023-01-31T09:54:27.064Z,73.44
2023-01-31T09:57:04.780Z,73.20
2023-01-31T09:59:42.413Z,72.92
2023-01-31T10:02:30.681Z,73.11
2023-01-31T10:05:12.273Z,72.69
2023-01-31T10:07:46.374Z,75.19
2023-01-31T10:10:27.383Z,80.27
2023-01-31T10:12:56.473Z,84.07
2023-01-31T10:15:36.830Z,85.28
2023-01-31T10:18:10.782Z,88.70
2023-01-31T10:20:47.471Z,88.56
2023-01-31T10:23:21.513Z,89.22
2023-01-31T10:25:53.113Z,89.89
2023-01-31T10:28:24.089Z,91.17
2023-01-31T10:30:57.478Z,90.82
2023-01-31T10:33:34.496Z,89.94
2023-01-31T10:36:10.025Z,87.71
2023-01-31T10:38:44.199Z,85.45
2023-01-31T10:41:15.646Z,82.73
2023-01-31T10:43:51.474Z,80.38
2023-01-31T10:46:18.557Z,78.84
2023-01-31T10:48:48.341Z,75.86
2023-01-31T10:51:30.629Z,72.49
2023-01-31T10:54:14.067Z,71.48
2023-01-31T10:56:44.419Z,68.09
2023-01-31T10:59:22.231Z,66.99
2023-01-31T11:01:49.621Z,65.29
2023-01-31T11:04:30.234Z,64.51
2023-01-31T11:09:30.384Z,63.14
2023-01-31T11:11:58.827Z,64.08
2023-01-31T11:14:25.741Z,63.92
2023-01-31T11:16:59.788Z,63.12
2023-01-31T11:19:34.229Z,61.25
2023-01-31T11:22:03.528Z,61.17
2023-01-31T11:24:33.650Z,60.87
2023-01-31T11:27:03.879Z,62.76
2023-01-31T11:29:34.166Z,60.95
2023-01-31T11:32:04.787Z,61.50
2023-01-31T11:34:32.327Z,61.47
2023-01-31T11:37:15.685Z,61.54
2023-01-31T11:39:42.460Z,59.66
2023-01-31T11:42:14.027Z,60.40
2023-01-31T11:44:55.354Z,60.20
2023-01-31T11:47:33.061Z,59.42
2023-01-31T11:50:01.119Z,60.11
2023-01-31T11:52:32.460Z,59.77
2023-01-31T11:55:02.307Z,60.84
2023-01-31T11:57:32.388Z,62.74
2023-01-31T12:00:02.706Z,61.61
2023-01-31T12:02:36.842Z,59.77
2023-01-31T12:05:11.138Z,58.96
2023-01-31T12:07:45.795Z,57.72
2023-01-31T12:10:33.459Z,58.16
2023-01-31T12:13:16.672Z,59.63
2023-01-31T12:15:51.310Z,59.57
2023-01-31T12:18:38.802Z,59.53
2023-01-31T12:21:14.276Z,60.95
2023-01-31T12:23:52.911Z,63.23
2023-01-31T12:26:31.025Z,60.05
2023-01-31T12:29:14.134Z,57.75
2023-01-31T12:31:55.704Z,54.97
2023-01-31T12:34:57.943Z,57.24
2023-01-31T12:37:41.431Z,53.44
2023-01-31T12:40:34.679Z,52.71
2023-01-31T12:43:03.967Z,54.08
2023-01-31T12:45:49.727Z,55.68
2023-01-31T12:48:29.372Z,57.36
2023-01-31T12:51:05.731Z,58.27
2023-01-31T12:53:51.640Z,58.60
2023-01-31T12:56:46.000Z,58.26
2023-01-31T12:59:35.320Z,56.66
2023-01-31T13:02:16.052Z,54.79
2023-01-31T13:04:49.156Z,53.74
2023-01-31T13:07:25.825Z,55.16
2023-01-31T13:09:57.871Z,56.07
2023-01-31T13:12:30.800Z,56.71
2023-01-31T13:15:03.861Z,57.71
2023-01-31T13:17:33.704Z,57.63
2023-01-31T13:20:21.511Z,59.05
2023-01-31T13:22:53.330Z,59.79
2023-01-31T13:25:24.687Z,60.25
2023-01-31T13:27:59.824Z,60.47
2023-01-31T13:30:36.366Z,59.17
2023-01-31T13:33:17.366Z,59.83
2023-01-31T13:35:48.748Z,61.30
2023-01-31T13:38:20.809Z,60.89
2023-01-31T13:40:52.531Z,61.38
2023-01-31T13:43:21.199Z,61.17
2023-01-31T13:45:53.728Z,59.97
2023-01-31T13:48:28.348Z,60.31
2023-01-31T13:51:01.640Z,59.45
2023-01-31T13:53:34.588Z,59.37
2023-01-31T13:56:04.411Z,59.60
2023-01-31T13:58:35.581Z,59.53
2023-01-31T14:01:06.532Z,58.20
2023-01-31T14:04:09.764Z,57.77
2023-01-31T14:07:14.979Z,56.21
2023-01-31T14:09:46.095Z,55.53
2023-01-31T14:12:36.209Z,56.54
2023-01-31T14:15:47.254Z,54.51
2023-01-31T14:18:39.701Z,52.19
2023-01-31T14:21:55.020Z,51.01
2023-01-31T14:25:03.190Z,50.75
2023-01-31T14:27:33.795Z,51.31
2023-01-31T14:30:21.239Z,51.50
2023-01-31T14:32:51.011Z,51.26
2023-01-31T14:35:36.341Z,50.16
2023-01-31T14:38:12.262Z,49.88
2023-01-31T14:40:53.782Z,49.44
2023-01-31T14:43:35.970Z,49.79
2023-01-31T14:46:42.713Z,51.60
2023-01-31T14:49:46.992Z,50.62
2023-01-31T14:52:43.319Z,50.99
2023-01-31T14:55:33.676Z,50.51
2023-01-31T14:58:03.844Z,51.13
2023-01-31T15:00:33.215Z,51.28
2023-01-31T15:03:04.665Z,51.69
2023-01-31T15:05:48.287Z,50.79
2023-01-31T15:08:38.880Z,50.56
2023-01-31T15:11:07.440Z,50.55
2023-01-31T15:13:44.401Z,50.68
2023-01-31T15:16:18.991Z,51.08
2023-01-31T15:18:48.902Z,50.19
2023-01-31T15:21:25.401Z,50.35
2023-01-31T15:23:54.293Z,49.78
2023-01-31T15:26:24.193Z,50.39
2023-01-31T15:28:52.767Z,50.98
2023-01-31T15:31:27.325Z,51.27
2023-01-31T15:33:59.915Z,51.86
2023-01-31T15:36:33.798Z,51.17
2023-01-31T15:39:16.165Z,51.44
2023-01-31T15:41:44.972Z,51.73
2023-01-31T15:44:16.521Z,50.52
2023-01-31T15:46:44.200Z,49.85
2023-01-31T15:49:38.417Z,49.30
2023-01-31T15:52:13.601Z,50.56
2023-01-31T15:54:51.780Z,49.42
2023-01-31T15:57:19.403Z,49.33
2023-01-31T15:59:48.320Z,48.70
2023-01-31T16:02:22.568Z,48.86
2023-01-31T16:04:49.509Z,48.44
2023-01-31T16:07:20.396Z,49.16
2023-01-31T16:09:48.423Z,49.98
2023-01-31T16:12:16.540Z,49.16
2023-01-31T16:14:47.547Z,49.78
2023-01-31T16:17:15.101Z,49.63
2023-01-31T16:19:42.550Z,49.81
2023-01-31T16:22:26.291Z,50.82
2023-01-31T16:24:55.355Z,50.92
2023-01-31T16:27:23.612Z,51.59
2023-01-31T16:29:53.090Z,51.91
2023-01-31T16:32:22.507Z,51.80
2023-01-31T16:34:54.980Z,51.55
2023-01-31T16:37:32.806Z,52.58
2023-01-31T16:40:05.555Z,52.62
2023-01-31T16:42:32.788Z,52.40
2023-01-31T16:45:00.046Z,52.75
2023-01-31T16:47:46.299Z,53.98
2023-01-31T16:50:42.814Z,53.37
2023-01-31T16:53:29.138Z,52.96
2023-01-31T16:56:20.168Z,53.20
2023-01-31T16:58:53.438Z,52.69
2023-01-31T17:01:23.628Z,52.27
2023-01-31T17:04:06.904Z,52.45
2023-01-31T17:06:34.766Z,52.33
2023-01-31T17:09:05.398Z,51.81
2023-01-31T17:11:43.165Z,51.72
2023-01-31T17:14:10.360Z,51.88
2023-01-31T17:16:37.163Z,53.16
2023-01-31T17:19:03.919Z,52.90
2023-01-31T17:21:34.648Z,53.03
2023-01-31T17:24:02.969Z,53.27
2023-01-31T17:26:31.479Z,53.58
2023-01-31T17:29:01.828Z,54.01
2023-01-31T17:31:29.274Z,54.37
2023-01-31T17:33:56.168Z,54.79
2023-01-31T17:36:23.242Z,54.42
2023-01-31T17:38:51.892Z,54.48
2023-01-31T17:41:22.290Z,54.87
2023-01-31T17:43:49.023Z,55.13
2023-01-31T17:46:18.074Z,54.64
2023-01-31T17:48:47.189Z,54.70
2023-01-31T17:51:14.090Z,54.30
2023-01-31T17:53:49.393Z,53.94
2023-01-31T17:56:17.408Z,53.54
2023-01-31T17:58:46.035Z,53.86
2023-01-31T18:01:13.205Z,54.07
2023-01-31T18:03:40.122Z,53.74
2023-01-31T18:06:09.171Z,53.58
2023-01-31T18:08:36.168Z,53.52
2023-01-31T18:11:04.747Z,53.54
2023-01-31T18:13:31.939Z,53.96
2023-01-31T18:16:17.436Z,53.93
2023-01-31T18:18:44.583Z,54.45
2023-01-31T18:21:12.977Z,54.38
2023-01-31T18:23:39.808Z,53.96
2023-01-31T18:26:07.787Z,54.06
2023-01-31T18:28:35.104Z,54.85
2023-01-31T18:31:03.030Z,54.55
2023-01-31T18:33:32.176Z,54.06
2023-01-31T18:36:00.421Z,54.21
2023-01-31T18:38:28.465Z,54.43
2023-01-31T18:40:55.813Z,53.78
2023-01-31T18:43:23.457Z,54.07
2023-01-31T18:45:50.388Z,53.97
2023-01-31T18:48:17.558Z,54.07
2023-01-31T18:50:45.894Z,53.79
2023-01-31T18:53:12.556Z,53.33
2023-01-31T18:55:39.318Z,53.14
2023-01-31T18:58:06.143Z,53.26
2023-01-31T19:00:32.940Z,52.97
2023-01-31T19:02:59.966Z,53.25
2023-01-31T19:05:26.875Z,53.01
2023-01-31T19:07:55.228Z,53.00
2023-01-31T19:10:22.111Z,52.82
2023-01-31T19:12:48.920Z,53.28
2023-01-31T19:15:15.760Z,53.42
2023-01-31T19:17:42.585Z,53.86
2023-01-31T19:20:10.973Z,54.48
2023-01-31T19:22:37.689Z,54.75
2023-01-31T19:25:07.442Z,55.59
2023-01-31T19:27:34.122Z,55.11
2023-01-31T19:30:00.801Z,56.17
2023-01-31T19:32:27.546Z,56.01
2023-01-31T19:34:54.509Z,56.76
2023-01-31T19:37:21.383Z,56.53
2023-01-31T19:39:48.221Z,56.59
2023-01-31T19:42:16.349Z,58.05
2023-01-31T19:44:43.400Z,57.14
2023-01-31T19:47:10.172Z,57.05
2023-01-31T19:49:36.834Z,57.29
2023-01-31T19:52:03.782Z,57.00
2023-01-31T19:54:30.733Z,58.78
2023-01-31T19:56:57.479Z,60.88
2023-01-31T19:59:26.010Z,59.40
2023-01-31T20:01:53.060Z,59.41
2023-01-31T20:04:19.766Z,59.50
2023-01-31T20:06:46.754Z,58.89
2023-01-31T20:09:13.652Z,58.99
2023-01-31T20:11:40.388Z,60.04
2023-01-31T20:14:07.186Z,61.34
2023-01-31T20:16:35.659Z,60.23
2023-01-31T20:19:02.439Z,59.52
2023-01-31T20:21:29.268Z,59.29
2023-01-31T20:23:56.101Z,58.65
2023-01-31T20:26:22.884Z,58.13
2023-01-31T20:28:50.034Z,57.68
2023-01-31T20:31:17.587Z,57.87
2023-01-31T20:33:46.207Z,57.53
2023-01-31T20:36:14.351Z,58.06
2023-01-31T20:38:41.271Z,57.47
2023-01-31T20:41:08.825Z,56.99
2023-01-31T20:43:36.678Z,56.83
2023-01-31T20:46:04.877Z,56.94
2023-01-31T20:48:31.817Z,56.79
2023-01-31T20:51:00.125Z,56.78
2023-01-31T20:53:27.675Z,56.76
2023-01-31T20:55:56.460Z,57.32
2023-01-31T20:58:23.820Z,59.04
2023-01-31T21:00:52.499Z,59.28
2023-01-31T21:03:19.644Z,58.64
2023-01-31T21:05:46.387Z,58.89
2023-01-31T21:08:14.784Z,59.76
2023-01-31T21:10:41.679Z,61.29
2023-01-31T21:13:08.620Z,61.84
2023-01-31T21:15:35.382Z,62.21
2023-01-31T21:18:02.108Z,62.90
2023-01-31T21:20:28.882Z,64.40
2023-01-31T21:22:55.591Z,65.42
2023-01-31T21:25:23.891Z,66.10
2023-01-31T21:27:50.675Z,65.74
2023-01-31T21:30:19.099Z,66.69
2023-01-31T21:32:46.046Z,65.48
2023-01-31T21:35:12.916Z,65.73
2023-01-31T21:37:39.776Z,65.93
2023-01-31T21:40:07.986Z,66.75
2023-01-31T21:42:36.255Z,66.51
2023-01-31T21:45:02.980Z,66.42
2023-01-31T21:47:29.782Z,66.98
2023-01-31T21:49:56.516Z,65.51
2023-01-31T21:52:23.483Z,65.46
2023-01-31T21:54:50.432Z,65.38
2023-01-31T21:57:17.274Z,64.47
2023-01-31T21:59:45.630Z,63.74
2023-01-31T22:02:12.878Z,62.99
2023-01-31T22:04:39.836Z,63.02
2023-01-31T22:07:09.228Z,62.83
2023-01-31T22:09:36.159Z,62.63
2023-01-31T22:12:02.872Z,62.97
2023-01-31T22:14:29.565Z,63.97
2023-01-31T22:16:57.656Z,64.26
2023-01-31T22:19:24.464Z,63.63
2023-01-31T22:21:51.187Z,63.13
2023-01-31T22:24:19.026Z,63.46
2023-01-31T22:26:45.728Z,63.19
2023-01-31T22:29:14.558Z,63.31
2023-01-31T22:31:42.032Z,63.42
2023-01-31T22:34:12.775Z,63.10
2023-01-31T22:36:40.403Z,63.06
2023-01-31T22:39:07.701Z,63.28
2023-01-31T22:41:34.396Z,62.89
2023-01-31T22:44:01.312Z,62.61
2023-01-31T22:46:29.119Z,62.81
2023-01-31T22:48:56.360Z,63.04
2023-01-31T22:51:27.106Z,63.00
2023-01-31T22:53:54.877Z,62.22
2023-01-31T22:56:23.610Z,61.95
2023-01-31T22:58:55.164Z,61.86
2023-01-31T23:01:24.369Z,61.71
2023-01-31T23:03:51.472Z,60.82
2023-01-31T23:06:18.332Z,61.23
2023-01-31T23:08:46.746Z,59.96
2023-01-31T23:11:15.270Z,59.37
2023-01-31T23:13:43.208Z,59.37
2023-01-31T23:16:15.738Z,61.20
2023-01-31T23:18:42.462Z,61.80
2023-01-31T23:21:11.045Z,60.00
2023-01-31T23:23:37.831Z,59.78
2023-01-31T23:26:06.927Z,59.69
2023-01-31T23:28:33.974Z,59.43
2023-01-31T23:31:01.380Z,59.76
2023-01-31T23:33:28.747Z,59.47
2023-01-31T23:35:55.542Z,59.06
2023-01-31T23:38:22.461Z,58.61
2023-01-31T23:40:52.653Z,58.42
2023-01-31T23:43:21.893Z,60.87
2023-01-31T23:45:48.960Z,59.26
2023-01-31T23:48:16.207Z,59.55
2023-01-31T23:50:43.487Z,60.67
2023-01-31T23:53:10.667Z,60.52
2023-01-31T23:55:37.439Z,61.65
2023-01-31T23:58:04.303Z,63.56
